Startpagina
METAR-TAF:

METAR-TAF

Vliegvelden :

Middleton Island, Alaska, Verenigde Staten

breedte: 59-26N, lengte: 146-18W, hoogte: 27 m

Actueel weer

Dit bericht is 59 minuten geleden gemaakt, om 02:01 UTC
Wind 32 kt uit het oosten met uitschieters tot 38 kt
Temperatuur 7°C
Vochtigheid 100%
Druk 988 hPa
Zicht: 4.8 km
Geheel bewolkt op 600 ft
lichte regen, nevel

METAR: PAMD 120201Z AUTO 10032G38KT 3SM -RA BR OVC006 07/07 A2919 RMK AO2 PK WND 10038/0159 CIG 004V008 P0000

Tijdstip: 18:00 (03:00 UTC)


TAF: ontbreekt

Waarnemingen en weersverwachtingen van meer dan 4000 vliegvelden (METAR en TAF).

De beschikbare stations zijn de gele en rode punten op de kaart.

Ga met uw muis naar het station om de naam te zien.

Klik dan om waarnemingen en weersverwachtingen te zien.

kaart wijzigen: klik op de groene knoppen met een zwart kruis om in te zoomen, op de groene knop met een streepje om uit te zoomen of op de groene pijlen voor aangrenzende kaarten.


METAR-TAF: